sensor_id;sensor_type;location;lat;lon;timestamp;temperature;humidity
60909;DHT22;46780;48.128;-1.704;2022-11-11T00:00:58;13.70;92.60
60909;DHT22;46780;48.128;-1.704;2022-11-11T00:03:25;13.70;93.20
60909;DHT22;46780;48.128;-1.704;2022-11-11T00:05:53;13.60;92.90
60909;DHT22;46780;48.128;-1.704;2022-11-11T00:08:19;13.60;92.80
60909;DHT22;46780;48.128;-1.704;2022-11-11T00:10:46;13.60;92.90
60909;DHT22;46780;48.128;-1.704;2022-11-11T00:13:12;13.50;92.80
60909;DHT22;46780;48.128;-1.704;2022-11-11T00:45:06;13.50;92.70
60909;DHT22;46780;48.128;-1.704;2022-11-11T00:47:33;12.90;92.90
60909;DHT22;46780;48.128;-1.704;2022-11-11T00:49:59;12.80;92.90
60909;DHT22;46780;48.128;-1.704;2022-11-11T00:52:26;12.70;93.00
60909;DHT22;46780;48.128;-1.704;2022-11-11T00:54:52;12.70;93.10
60909;DHT22;46780;48.128;-1.704;2022-11-11T00:57:20;12.70;93.20
60909;DHT22;46780;48.128;-1.704;2022-11-11T00:59:47;12.70;93.20
60909;DHT22;46780;48.128;-1.704;2022-11-11T01:02:13;12.70;93.10
60909;DHT22;46780;48.128;-1.704;2022-11-11T01:04:40;12.70;93.10
60909;DHT22;46780;48.128;-1.704;2022-11-11T01:07:06;12.70;93.00
60909;DHT22;46780;48.128;-1.704;2022-11-11T01:09:32;12.70;92.90
60909;DHT22;46780;48.128;-1.704;2022-11-11T01:11:59;12.70;92.80
60909;DHT22;46780;48.128;-1.704;2022-11-11T01:14:27;12.80;92.70
60909;DHT22;46780;48.128;-1.704;2022-11-11T01:16:53;12.80;92.60
60909;DHT22;46780;48.128;-1.704;2022-11-11T01:19:20;12.80;92.60
60909;DHT22;46780;48.128;-1.704;2022-11-11T01:21:46;12.80;92.40
60909;DHT22;46780;48.128;-1.704;2022-11-11T01:24:12;12.80;92.40
60909;DHT22;46780;48.128;-1.704;2022-11-11T01:26:40;12.80;92.70
60909;DHT22;46780;48.128;-1.704;2022-11-11T01:29:06;12.80;92.20
60909;DHT22;46780;48.128;-1.704;2022-11-11T01:31:34;12.80;92.10
60909;DHT22;46780;48.128;-1.704;2022-11-11T01:34:01;12.80;92.20
60909;DHT22;46780;48.128;-1.704;2022-11-11T01:36:27;12.70;92.10
60909;DHT22;46780;48.128;-1.704;2022-11-11T01:38:55;12.70;92.10
60909;DHT22;46780;48.128;-1.704;2022-11-11T01:41:24;12.60;92.10
60909;DHT22;46780;48.128;-1.704;2022-11-11T01:43:52;12.60;92.10
60909;DHT22;46780;48.128;-1.704;2022-11-11T01:46:30;12.60;92.10
60909;DHT22;46780;48.128;-1.704;2022-11-11T01:49:19;12.50;92.10
60909;DHT22;46780;48.128;-1.704;2022-11-11T01:51:56;12.50;92.20
60909;DHT22;46780;48.128;-1.704;2022-11-11T01:54:30;12.40;92.30
60909;DHT22;46780;48.128;-1.704;2022-11-11T01:57:01;12.30;92.30
60909;DHT22;46780;48.128;-1.704;2022-11-11T01:59:29;12.30;92.30
60909;DHT22;46780;48.128;-1.704;2022-11-11T02:01:56;12.30;92.30
60909;DHT22;46780;48.128;-1.704;2022-11-11T02:04:24;12.20;92.40
60909;DHT22;46780;48.128;-1.704;2022-11-11T02:06:53;12.10;92.40
60909;DHT22;46780;48.128;-1.704;2022-11-11T02:09:22;12.00;92.50
60909;DHT22;46780;48.128;-1.704;2022-11-11T02:11:50;12.00;92.60
60909;DHT22;46780;48.128;-1.704;2022-11-11T02:14:17;12.00;92.60
60909;DHT22;46780;48.128;-1.704;2022-11-11T02:16:44;12.00;92.70
60909;DHT22;46780;48.128;-1.704;2022-11-11T02:19:10;11.90;92.70
60909;DHT22;46780;48.128;-1.704;2022-11-11T02:21:43;11.90;92.70
60909;DHT22;46780;48.128;-1.704;2022-11-11T02:24:14;11.90;92.70
60909;DHT22;46780;48.128;-1.704;2022-11-11T02:26:42;11.90;92.60
60909;DHT22;46780;48.128;-1.704;2022-11-11T02:29:11;11.90;92.70
60909;DHT22;46780;48.128;-1.704;2022-11-11T02:31:39;11.80;92.60
60909;DHT22;46780;48.128;-1.704;2022-11-11T02:34:05;11.80;92.60
60909;DHT22;46780;48.128;-1.704;2022-11-11T02:36:32;11.80;92.70
60909;DHT22;46780;48.128;-1.704;2022-11-11T02:38:59;11.80;92.70
60909;DHT22;46780;48.128;-1.704;2022-11-11T02:41:27;11.80;92.70
60909;DHT22;46780;48.128;-1.704;2022-11-11T02:43:54;11.70;92.70
60909;DHT22;46780;48.128;-1.704;2022-11-11T02:46:21;11.70;92.80
60909;DHT22;46780;48.128;-1.704;2022-11-11T02:48:47;11.70;92.80
60909;DHT22;46780;48.128;-1.704;2022-11-11T02:51:14;11.70;92.80
60909;DHT22;46780;48.128;-1.704;2022-11-11T02:53:40;11.70;92.80
60909;DHT22;46780;48.128;-1.704;2022-11-11T02:56:07;11.70;92.80
60909;DHT22;46780;48.128;-1.704;2022-11-11T02:58:35;11.70;92.80
60909;DHT22;46780;48.128;-1.704;2022-11-11T03:01:01;11.70;92.80
60909;DHT22;46780;48.128;-1.704;2022-11-11T03:03:28;11.70;92.80
60909;DHT22;46780;48.128;-1.704;2022-11-11T03:05:54;11.60;92.80
60909;DHT22;46780;48.128;-1.704;2022-11-11T03:08:20;11.60;92.90
60909;DHT22;46780;48.128;-1.704;2022-11-11T03:10:47;11.60;92.90
60909;DHT22;46780;48.128;-1.704;2022-11-11T03:13:13;11.60;92.90
60909;DHT22;46780;48.128;-1.704;2022-11-11T03:15:41;11.60;92.90
60909;DHT22;46780;48.128;-1.704;2022-11-11T03:18:08;11.60;92.90
60909;DHT22;46780;48.128;-1.704;2022-11-11T03:20:34;11.60;92.90
60909;DHT22;46780;48.128;-1.704;2022-11-11T03:23:02;11.60;93.00
60909;DHT22;46780;48.128;-1.704;2022-11-11T03:25:29;11.60;92.90
60909;DHT22;46780;48.128;-1.704;2022-11-11T03:27:56;11.60;93.00
60909;DHT22;46780;48.128;-1.704;2022-11-11T03:30:22;11.60;93.10
60909;DHT22;46780;48.128;-1.704;2022-11-11T03:32:50;11.60;93.10
60909;DHT22;46780;48.128;-1.704;2022-11-11T03:35:17;11.60;93.20
60909;DHT22;46780;48.128;-1.704;2022-11-11T03:37:43;11.60;93.20
60909;DHT22;46780;48.128;-1.704;2022-11-11T03:40:10;11.60;93.40
60909;DHT22;46780;48.128;-1.704;2022-11-11T03:42:37;11.50;93.60
60909;DHT22;46780;48.128;-1.704;2022-11-11T03:45:04;11.50;93.80
60909;DHT22;46780;48.128;-1.704;2022-11-11T03:47:30;11.50;93.90
60909;DHT22;46780;48.128;-1.704;2022-11-11T03:49:58;11.60;94.00
60909;DHT22;46780;48.128;-1.704;2022-11-11T03:52:25;11.60;94.00
60909;DHT22;46780;48.128;-1.704;2022-11-11T03:54:51;11.60;94.10
60909;DHT22;46780;48.128;-1.704;2022-11-11T03:57:18;11.60;94.20
60909;DHT22;46780;48.128;-1.704;2022-11-11T03:59:44;11.60;94.30
60909;DHT22;46780;48.128;-1.704;2022-11-11T04:02:12;11.60;94.40
60909;DHT22;46780;48.128;-1.704;2022-11-11T04:04:38;11.60;94.60
60909;DHT22;46780;48.128;-1.704;2022-11-11T04:07:06;11.60;94.60
60909;DHT22;46780;48.128;-1.704;2022-11-11T04:09:34;11.60;94.70
60909;DHT22;46780;48.128;-1.704;2022-11-11T04:12:00;11.60;94.80
60909;DHT22;46780;48.128;-1.704;2022-11-11T04:14:27;11.50;94.90
60909;DHT22;46780;48.128;-1.704;2022-11-11T04:16:53;11.50;95.20
60909;DHT22;46780;48.128;-1.704;2022-11-11T04:19:20;11.40;95.40
60909;DHT22;46780;48.128;-1.704;2022-11-11T04:21:47;11.40;95.60
60909;DHT22;46780;48.128;-1.704;2022-11-11T04:24:16;11.40;95.80
60909;DHT22;46780;48.128;-1.704;2022-11-11T04:26:42;11.30;96.00
60909;DHT22;46780;48.128;-1.704;2022-11-11T04:29:09;11.40;96.20
60909;DHT22;46780;48.128;-1.704;2022-11-11T04:31:35;11.40;96.10
60909;DHT22;46780;48.128;-1.704;2022-11-11T04:34:02;11.50;96.10
60909;DHT22;46780;48.128;-1.704;2022-11-11T04:36:28;11.50;96.10
60909;DHT22;46780;48.128;-1.704;2022-11-11T04:38:55;11.50;96.20
60909;DHT22;46780;48.128;-1.704;2022-11-11T04:41:23;11.50;96.20
60909;DHT22;46780;48.128;-1.704;2022-11-11T04:43:49;11.60;96.10
60909;DHT22;46780;48.128;-1.704;2022-11-11T04:46:16;11.50;96.00
60909;DHT22;46780;48.128;-1.704;2022-11-11T04:48:42;11.50;96.10
60909;DHT22;46780;48.128;-1.704;2022-11-11T04:51:09;11.40;96.30
60909;DHT22;46780;48.128;-1.704;2022-11-11T04:53:35;11.40;96.40
60909;DHT22;46780;48.128;-1.704;2022-11-11T04:56:02;11.40;96.60
60909;DHT22;46780;48.128;-1.704;2022-11-11T04:58:32;11.30;96.70
60909;DHT22;46780;48.128;-1.704;2022-11-11T05:00:59;11.30;96.90
60909;DHT22;46780;48.128;-1.704;2022-11-11T05:03:26;11.30;97.00
60909;DHT22;46780;48.128;-1.704;2022-11-11T05:05:54;11.40;97.20
60909;DHT22;46780;48.128;-1.704;2022-11-11T05:08:20;11.40;97.20
60909;DHT22;46780;48.128;-1.704;2022-11-11T05:10:47;11.40;97.20
60909;DHT22;46780;48.128;-1.704;2022-11-11T05:13:13;11.50;97.20
60909;DHT22;46780;48.128;-1.704;2022-11-11T05:15:43;11.50;97.10
60909;DHT22;46780;48.128;-1.704;2022-11-11T05:18:10;11.50;97.10
60909;DHT22;46780;48.128;-1.704;2022-11-11T05:20:36;11.40;97.10
60909;DHT22;46780;48.128;-1.704;2022-11-11T05:23:02;11.40;97.10
60909;DHT22;46780;48.128;-1.704;2022-11-11T05:25:29;11.40;97.20
60909;DHT22;46780;48.128;-1.704;2022-11-11T05:27:56;11.40;97.30
60909;DHT22;46780;48.128;-1.704;2022-11-11T05:30:24;11.50;97.50
60909;DHT22;46780;48.128;-1.704;2022-11-11T05:32:53;11.50;97.30
60909;DHT22;46780;48.128;-1.704;2022-11-11T05:35:20;11.50;97.40
60909;DHT22;46780;48.128;-1.704;2022-11-11T05:37:47;11.50;97.60
60909;DHT22;46780;48.128;-1.704;2022-11-11T05:40:13;11.50;97.60
60909;DHT22;46780;48.128;-1.704;2022-11-11T05:42:40;11.40;97.70
60909;DHT22;46780;48.128;-1.704;2022-11-11T05:45:08;11.50;97.70
60909;DHT22;46780;48.128;-1.704;2022-11-11T05:47:34;11.50;97.90
60909;DHT22;46780;48.128;-1.704;2022-11-11T05:50:03;11.50;97.90
60909;DHT22;46780;48.128;-1.704;2022-11-11T05:52:29;11.40;97.90
60909;DHT22;46780;48.128;-1.704;2022-11-11T05:54:56;11.50;98.10
60909;DHT22;46780;48.128;-1.704;2022-11-11T05:57:22;11.40;98.10
60909;DHT22;46780;48.128;-1.704;2022-11-11T05:59:48;11.50;97.90
60909;DHT22;46780;48.128;-1.704;2022-11-11T06:02:15;11.50;97.70
60909;DHT22;46780;48.128;-1.704;2022-11-11T06:04:41;11.40;97.80
60909;DHT22;46780;48.128;-1.704;2022-11-11T06:07:09;11.40;97.90
60909;DHT22;46780;48.128;-1.704;2022-11-11T06:09:36;11.40;98.20
60909;DHT22;46780;48.128;-1.704;2022-11-11T06:12:02;11.40;98.20
60909;DHT22;46780;48.128;-1.704;2022-11-11T06:14:29;11.50;98.20
60909;DHT22;46780;48.128;-1.704;2022-11-11T06:16:55;11.50;98.10
60909;DHT22;46780;48.128;-1.704;2022-11-11T06:19:22;11.50;97.90
60909;DHT22;46780;48.128;-1.704;2022-11-11T06:21:48;11.50;97.80
60909;DHT22;46780;48.128;-1.704;2022-11-11T06:24:16;11.50;97.50
60909;DHT22;46780;48.128;-1.704;2022-11-11T06:26:42;11.50;97.50
60909;DHT22;46780;48.128;-1.704;2022-11-11T06:29:09;11.50;97.50
60909;DHT22;46780;48.128;-1.704;2022-11-11T06:31:35;11.50;97.50
60909;DHT22;46780;48.128;-1.704;2022-11-11T06:34:02;11.50;97.60
60909;DHT22;46780;48.128;-1.704;2022-11-11T06:36:28;11.60;97.70
60909;DHT22;46780;48.128;-1.704;2022-11-11T06:38:55;11.60;97.60
60909;DHT22;46780;48.128;-1.704;2022-11-11T06:41:23;11.60;97.50
60909;DHT22;46780;48.128;-1.704;2022-11-11T06:43:49;11.70;97.40
60909;DHT22;46780;48.128;-1.704;2022-11-11T06:46:19;11.70;97.30
60909;DHT22;46780;48.128;-1.704;2022-11-11T06:48:47;11.70;97.30
60909;DHT22;46780;48.128;-1.704;2022-11-11T06:51:13;11.70;97.20
60909;DHT22;46780;48.128;-1.704;2022-11-11T06:53:40;11.70;97.10
60909;DHT22;46780;48.128;-1.704;2022-11-11T06:56:07;11.80;97.10
60909;DHT22;46780;48.128;-1.704;2022-11-11T06:58:35;11.80;97.00
60909;DHT22;46780;48.128;-1.704;2022-11-11T07:01:04;11.70;96.70
60909;DHT22;46780;48.128;-1.704;2022-11-11T07:03:30;11.70;96.60
60909;DHT22;46780;48.128;-1.704;2022-11-11T07:05:59;11.70;96.50
60909;DHT22;46780;48.128;-1.704;2022-11-11T07:08:26;11.60;96.40
60909;DHT22;46780;48.128;-1.704;2022-11-11T07:10:53;11.60;96.40
60909;DHT22;46780;48.128;-1.704;2022-11-11T07:13:20;11.50;96.40
60909;DHT22;46780;48.128;-1.704;2022-11-11T07:15:47;11.40;96.60
60909;DHT22;46780;48.128;-1.704;2022-11-11T07:18:14;11.40;96.70
60909;DHT22;46780;48.128;-1.704;2022-11-11T07:20:40;11.30;96.70
60909;DHT22;46780;48.128;-1.704;2022-11-11T07:23:07;11.20;97.00
60909;DHT22;46780;48.128;-1.704;2022-11-11T07:25:34;11.20;97.40
60909;DHT22;46780;48.128;-1.704;2022-11-11T07:28:00;11.20;97.60
60909;DHT22;46780;48.128;-1.704;2022-11-11T07:30:27;11.20;97.70
60909;DHT22;46780;48.128;-1.704;2022-11-11T07:32:55;11.20;97.80
60909;DHT22;46780;48.128;-1.704;2022-11-11T07:35:22;11.20;97.90
60909;DHT22;46780;48.128;-1.704;2022-11-11T07:37:48;11.20;98.00
60909;DHT22;46780;48.128;-1.704;2022-11-11T07:40:16;11.20;98.10
60909;DHT22;46780;48.128;-1.704;2022-11-11T07:42:43;11.20;98.00
60909;DHT22;46780;48.128;-1.704;2022-11-11T07:45:11;11.20;98.00
60909;DHT22;46780;48.128;-1.704;2022-11-11T07:47:38;11.30;97.90
60909;DHT22;46780;48.128;-1.704;2022-11-11T07:50:07;11.30;97.70
60909;DHT22;46780;48.128;-1.704;2022-11-11T07:52:34;11.30;97.70
60909;DHT22;46780;48.128;-1.704;2022-11-11T07:55:00;11.20;98.30
60909;DHT22;46780;48.128;-1.704;2022-11-11T07:57:27;11.30;98.10
60909;DHT22;46780;48.128;-1.704;2022-11-11T07:59:53;11.30;98.00
60909;DHT22;46780;48.128;-1.704;2022-11-11T08:02:20;11.30;97.90
60909;DHT22;46780;48.128;-1.704;2022-11-11T08:04:46;11.40;98.10
60909;DHT22;46780;48.128;-1.704;2022-11-11T08:07:14;11.40;97.60
60909;DHT22;46780;48.128;-1.704;2022-11-11T08:09:41;11.40;97.60
60909;DHT22;46780;48.128;-1.704;2022-11-11T08:12:08;11.40;97.40
60909;DHT22;46780;48.128;-1.704;2022-11-11T08:14:34;11.40;97.30
60909;DHT22;46780;48.128;-1.704;2022-11-11T08:17:01;11.40;97.30
60909;DHT22;46780;48.128;-1.704;2022-11-11T08:19:27;11.40;97.30
60909;DHT22;46780;48.128;-1.704;2022-11-11T08:21:53;11.40;97.30
60909;DHT22;46780;48.128;-1.704;2022-11-11T08:24:21;11.40;97.20
60909;DHT22;46780;48.128;-1.704;2022-11-11T08:26:48;11.50;97.00
60909;DHT22;46780;48.128;-1.704;2022-11-11T08:29:15;11.40;97.00
60909;DHT22;46780;48.128;-1.704;2022-11-11T08:31:41;11.40;96.90
60909;DHT22;46780;48.128;-1.704;2022-11-11T08:34:08;11.40;97.00
60909;DHT22;46780;48.128;-1.704;2022-11-11T08:36:34;11.50;97.00
60909;DHT22;46780;48.128;-1.704;2022-11-11T08:39:01;11.50;96.90
60909;DHT22;46780;48.128;-1.704;2022-11-11T08:41:29;11.50;96.70
60909;DHT22;46780;48.128;-1.704;2022-11-11T08:43:55;11.50;96.70
60909;DHT22;46780;48.128;-1.704;2022-11-11T08:46:22;11.50;96.70
60909;DHT22;46780;48.128;-1.704;2022-11-11T08:48:49;11.60;96.70
60909;DHT22;46780;48.128;-1.704;2022-11-11T08:51:15;11.50;96.60
60909;DHT22;46780;48.128;-1.704;2022-11-11T08:53:42;11.50;96.40
60909;DHT22;46780;48.128;-1.704;2022-11-11T08:56:08;11.50;96.50
60909;DHT22;46780;48.128;-1.704;2022-11-11T08:58:36;11.50;96.50
60909;DHT22;46780;48.128;-1.704;2022-11-11T09:01:03;11.50;96.50
60909;DHT22;46780;48.128;-1.704;2022-11-11T09:03:30;11.50;96.40
60909;DHT22;46780;48.128;-1.704;2022-11-11T09:05:57;11.40;96.20
60909;DHT22;46780;48.128;-1.704;2022-11-11T09:08:23;11.40;96.10
60909;DHT22;46780;48.128;-1.704;2022-11-11T09:10:49;11.40;95.90
60909;DHT22;46780;48.128;-1.704;2022-11-11T09:13:16;11.40;95.90
60909;DHT22;46780;48.128;-1.704;2022-11-11T09:15:44;11.30;95.80
60909;DHT22;46780;48.128;-1.704;2022-11-11T09:18:10;11.30;95.80
60909;DHT22;46780;48.128;-1.704;2022-11-11T09:20:37;11.30;95.90
60909;DHT22;46780;48.128;-1.704;2022-11-11T09:23:03;11.20;95.80
60909;DHT22;46780;48.128;-1.704;2022-11-11T09:25:30;11.20;95.90
60909;DHT22;46780;48.128;-1.704;2022-11-11T09:27:57;11.20;96.00
60909;DHT22;46780;48.128;-1.704;2022-11-11T09:30:25;11.10;96.10
60909;DHT22;46780;48.128;-1.704;2022-11-11T09:32:53;11.10;96.10
60909;DHT22;46780;48.128;-1.704;2022-11-11T09:35:20;11.10;96.00
60909;DHT22;46780;48.128;-1.704;2022-11-11T09:37:53;11.20;95.90
60909;DHT22;46780;48.128;-1.704;2022-11-11T09:40:23;11.10;95.60
60909;DHT22;46780;48.128;-1.704;2022-11-11T09:42:59;11.10;95.60
60909;DHT22;46780;48.128;-1.704;2022-11-11T09:45:36;11.10;95.60
60909;DHT22;46780;48.128;-1.704;2022-11-11T09:48:33;11.10;95.60
60909;DHT22;46780;48.128;-1.704;2022-11-11T09:51:04;11.00;95.40
60909;DHT22;46780;48.128;-1.704;2022-11-11T09:53:34;11.00;95.30
60909;DHT22;46780;48.128;-1.704;2022-11-11T09:56:05;11.00;95.30
60909;DHT22;46780;48.128;-1.704;2022-11-11T09:58:36;10.90;95.40
60909;DHT22;46780;48.128;-1.704;2022-11-11T10:01:07;10.90;95.30
60909;DHT22;46780;48.128;-1.704;2022-11-11T10:03:40;11.00;95.40
60909;DHT22;46780;48.128;-1.704;2022-11-11T10:06:13;11.00;95.60
60909;DHT22;46780;48.128;-1.704;2022-11-11T10:08:45;11.00;95.70
60909;DHT22;46780;48.128;-1.704;2022-11-11T10:11:17;11.00;95.70
60909;DHT22;46780;48.128;-1.704;2022-11-11T10:13:45;11.00;95.90
60909;DHT22;46780;48.128;-1.704;2022-11-11T10:16:20;11.00;95.90
60909;DHT22;46780;48.128;-1.704;2022-11-11T10:19:01;11.10;95.70
60909;DHT22;46780;48.128;-1.704;2022-11-11T10:21:36;11.10;95.50
60909;DHT22;46780;48.128;-1.704;2022-11-11T10:24:12;11.10;95.50
60909;DHT22;46780;48.128;-1.704;2022-11-11T10:26:42;11.20;95.40
60909;DHT22;46780;48.128;-1.704;2022-11-11T10:29:13;11.20;95.20
60909;DHT22;46780;48.128;-1.704;2022-11-11T10:31:41;11.20;95.10
60909;DHT22;46780;48.128;-1.704;2022-11-11T10:34:11;11.20;95.20
60909;DHT22;46780;48.128;-1.704;2022-11-11T10:36:41;11.20;95.20
60909;DHT22;46780;48.128;-1.704;2022-11-11T10:39:10;11.20;95.10
60909;DHT22;46780;48.128;-1.704;2022-11-11T10:41:39;11.20;95.10
60909;DHT22;46780;48.128;-1.704;2022-11-11T10:44:19;11.20;95.00
60909;DHT22;46780;48.128;-1.704;2022-11-11T10:46:53;11.20;95.00
60909;DHT22;46780;48.128;-1.704;2022-11-11T10:49:24;11.20;94.90
60909;DHT22;46780;48.128;-1.704;2022-11-11T10:51:57;11.20;94.90
60909;DHT22;46780;48.128;-1.704;2022-11-11T10:54:31;11.20;94.90
60909;DHT22;46780;48.128;-1.704;2022-11-11T10:57:02;11.20;95.00
60909;DHT22;46780;48.128;-1.704;2022-11-11T10:59:36;11.30;94.90
60909;DHT22;46780;48.128;-1.704;2022-11-11T11:02:11;11.30;94.80
60909;DHT22;46780;48.128;-1.704;2022-11-11T11:04:44;11.30;94.80
60909;DHT22;46780;48.128;-1.704;2022-11-11T11:07:16;11.30;94.90
60909;DHT22;46780;48.128;-1.704;2022-11-11T11:09:48;11.30;94.90
60909;DHT22;46780;48.128;-1.704;2022-11-11T11:12:19;11.30;94.90
60909;DHT22;46780;48.128;-1.704;2022-11-11T11:14:50;11.30;94.90
60909;DHT22;46780;48.128;-1.704;2022-11-11T11:17:23;11.30;94.90
60909;DHT22;46780;48.128;-1.704;2022-11-11T11:20:09;11.40;94.90
60909;DHT22;46780;48.128;-1.704;2022-11-11T11:22:48;11.40;94.80
60909;DHT22;46780;48.128;-1.704;2022-11-11T11:25:15;11.40;94.90
60909;DHT22;46780;48.128;-1.704;2022-11-11T11:27:42;11.50;94.90
60909;DHT22;46780;48.128;-1.704;2022-11-11T11:30:09;11.50;94.70
60909;DHT22;46780;48.128;-1.704;2022-11-11T11:32:36;11.50;94.50
60909;DHT22;46780;48.128;-1.704;2022-11-11T11:35:03;11.50;94.60
60909;DHT22;46780;48.128;-1.704;2022-11-11T11:37:31;11.60;94.70
60909;DHT22;46780;48.128;-1.704;2022-11-11T11:40:00;11.70;94.60
60909;DHT22;46780;48.128;-1.704;2022-11-11T11:42:29;11.70;94.50
60909;DHT22;46780;48.128;-1.704;2022-11-11T11:44:56;11.70;94.60
60909;DHT22;46780;48.128;-1.704;2022-11-11T11:47:40;11.80;94.60
60909;DHT22;46780;48.128;-1.704;2022-11-11T11:53:07;12.00;94.30
60909;DHT22;46780;48.128;-1.704;2022-11-11T11:55:41;12.10;94.00
60909;DHT22;46780;48.128;-1.704;2022-11-11T11:58:20;12.10;93.90
60909;DHT22;46780;48.128;-1.704;2022-11-11T12:00:55;12.20;93.80
60909;DHT22;46780;48.128;-1.704;2022-11-11T12:03:45;12.30;93.20
60909;DHT22;46780;48.128;-1.704;2022-11-11T12:06:20;12.20;93.10
60909;DHT22;46780;48.128;-1.704;2022-11-11T12:09:00;12.20;93.00
60909;DHT22;46780;48.128;-1.704;2022-11-11T12:11:29;12.20;92.70
60909;DHT22;46780;48.128;-1.704;2022-11-11T12:14:16;12.20;92.70
60909;DHT22;46780;48.128;-1.704;2022-11-11T12:16:52;12.10;92.80
60909;DHT22;46780;48.128;-1.704;2022-11-11T12:19:35;12.00;92.90
60909;DHT22;46780;48.128;-1.704;2022-11-11T12:22:10;12.00;93.10
60909;DHT22;46780;48.128;-1.704;2022-11-11T12:24:49;11.90;93.20
60909;DHT22;46780;48.128;-1.704;2022-11-11T12:27:24;11.90;93.40
60909;DHT22;46780;48.128;-1.704;2022-11-11T12:30:02;11.90;93.50
60909;DHT22;46780;48.128;-1.704;2022-11-11T12:32:52;11.90;93.60
60909;DHT22;46780;48.128;-1.704;2022-11-11T12:35:32;12.00;93.60
60909;DHT22;46780;48.128;-1.704;2022-11-11T12:38:19;12.00;93.50
60909;DHT22;46780;48.128;-1.704;2022-11-11T12:40:58;12.00;93.50
60909;DHT22;46780;48.128;-1.704;2022-11-11T12:43:37;12.00;93.60
60909;DHT22;46780;48.128;-1.704;2022-11-11T12:46:15;12.10;93.80
60909;DHT22;46780;48.128;-1.704;2022-11-11T12:48:55;12.10;93.80
60909;DHT22;46780;48.128;-1.704;2022-11-11T12:51:36;12.20;93.80
60909;DHT22;46780;48.128;-1.704;2022-11-11T12:54:16;12.30;93.70
60909;DHT22;46780;48.128;-1.704;2022-11-11T12:57:01;12.30;93.50
60909;DHT22;46780;48.128;-1.704;2022-11-11T12:59:43;12.40;93.30
60909;DHT22;46780;48.128;-1.704;2022-11-11T13:02:25;12.30;93.10
60909;DHT22;46780;48.128;-1.704;2022-11-11T13:05:04;12.30;93.10
60909;DHT22;46780;48.128;-1.704;2022-11-11T13:07:53;12.30;93.10
60909;DHT22;46780;48.128;-1.704;2022-11-11T13:10:26;12.30;93.20
60909;DHT22;46780;48.128;-1.704;2022-11-11T13:13:16;12.20;93.20
60909;DHT22;46780;48.128;-1.704;2022-11-11T13:15:47;12.20;93.40
60909;DHT22;46780;48.128;-1.704;2022-11-11T13:18:19;12.10;93.50
60909;DHT22;46780;48.128;-1.704;2022-11-11T13:20:54;12.10;93.60
60909;DHT22;46780;48.128;-1.704;2022-11-11T13:23:22;12.10;93.70
60909;DHT22;46780;48.128;-1.704;2022-11-11T13:25:53;12.10;93.70
60909;DHT22;46780;48.128;-1.704;2022-11-11T13:28:25;12.10;93.70
60909;DHT22;46780;48.128;-1.704;2022-11-11T13:31:02;12.20;93.70
60909;DHT22;46780;48.128;-1.704;2022-11-11T13:33:37;12.20;93.60
60909;DHT22;46780;48.128;-1.704;2022-11-11T13:36:07;12.10;93.70
60909;DHT22;46780;48.128;-1.704;2022-11-11T13:38:37;12.10;93.70
60909;DHT22;46780;48.128;-1.704;2022-11-11T13:41:06;12.10;93.70
60909;DHT22;46780;48.128;-1.704;2022-11-11T13:43:39;12.10;93.70
60909;DHT22;46780;48.128;-1.704;2022-11-11T13:46:11;12.10;94.20
60909;DHT22;46780;48.128;-1.704;2022-11-11T13:48:49;12.10;93.90
60909;DHT22;46780;48.128;-1.704;2022-11-11T13:51:22;12.10;93.80
60909;DHT22;46780;48.128;-1.704;2022-11-11T13:53:50;12.10;93.70
60909;DHT22;46780;48.128;-1.704;2022-11-11T13:56:25;12.10;93.60
60909;DHT22;46780;48.128;-1.704;2022-11-11T13:58:55;12.10;93.70
60909;DHT22;46780;48.128;-1.704;2022-11-11T14:01:22;12.10;93.70
60909;DHT22;46780;48.128;-1.704;2022-11-11T14:04:01;12.10;93.80
60909;DHT22;46780;48.128;-1.704;2022-11-11T14:06:52;12.10;93.70
60909;DHT22;46780;48.128;-1.704;2022-11-11T14:12:34;12.00;93.80
60909;DHT22;46780;48.128;-1.704;2022-11-11T14:15:03;12.00;93.90
60909;DHT22;46780;48.128;-1.704;2022-11-11T14:17:30;12.00;94.00
60909;DHT22;46780;48.128;-1.704;2022-11-11T14:19:56;12.00;94.00
60909;DHT22;46780;48.128;-1.704;2022-11-11T14:22:28;12.00;94.00
60909;DHT22;46780;48.128;-1.704;2022-11-11T14:25:09;12.00;94.10
60909;DHT22;46780;48.128;-1.704;2022-11-11T14:27:36;12.00;94.00
60909;DHT22;46780;48.128;-1.704;2022-11-11T14:30:25;12.00;94.00
60909;DHT22;46780;48.128;-1.704;2022-11-11T14:32:54;12.00;94.10
60909;DHT22;46780;48.128;-1.704;2022-11-11T14:35:32;12.00;94.00
60909;DHT22;46780;48.128;-1.704;2022-11-11T14:38:19;12.00;93.90
60909;DHT22;46780;48.128;-1.704;2022-11-11T14:40:46;12.00;93.80
60909;DHT22;46780;48.128;-1.704;2022-11-11T14:43:40;12.00;93.60
60909;DHT22;46780;48.128;-1.704;2022-11-11T14:46:09;12.00;93.60
60909;DHT22;46780;48.128;-1.704;2022-11-11T14:49:06;12.00;93.60
60909;DHT22;46780;48.128;-1.704;2022-11-11T14:54:35;12.00;93.60
60909;DHT22;46780;48.128;-1.704;2022-11-11T14:57:06;12.00;93.60
60909;DHT22;46780;48.128;-1.704;2022-11-11T14:59:34;12.00;93.70
60909;DHT22;46780;48.128;-1.704;2022-11-11T15:02:20;12.00;93.70
60909;DHT22;46780;48.128;-1.704;2022-11-11T15:04:48;12.00;93.70
60909;DHT22;46780;48.128;-1.704;2022-11-11T15:07:23;12.10;93.60
60909;DHT22;46780;48.128;-1.704;2022-11-11T15:10:00;12.10;93.50
60909;DHT22;46780;48.128;-1.704;2022-11-11T15:12:44;12.10;93.40
60909;DHT22;46780;48.128;-1.704;2022-11-11T15:15:17;12.10;93.50
60909;DHT22;46780;48.128;-1.704;2022-11-11T15:17:59;12.10;93.60
60909;DHT22;46780;48.128;-1.704;2022-11-11T15:20:52;12.10;93.50
60909;DHT22;46780;48.128;-1.704;2022-11-11T15:23:27;12.10;93.50
60909;DHT22;46780;48.128;-1.704;2022-11-11T15:26:03;12.00;93.60
60909;DHT22;46780;48.128;-1.704;2022-11-11T15:28:49;12.00;93.70
60909;DHT22;46780;48.128;-1.704;2022-11-11T15:31:25;12.00;93.80
60909;DHT22;46780;48.128;-1.704;2022-11-11T15:33:59;12.00;93.90
60909;DHT22;46780;48.128;-1.704;2022-11-11T15:36:44;11.90;93.80
60909;DHT22;46780;48.128;-1.704;2022-11-11T15:39:19;11.90;93.90
60909;DHT22;46780;48.128;-1.704;2022-11-11T15:41:48;11.90;94.00
60909;DHT22;46780;48.128;-1.704;2022-11-11T15:44:18;11.90;94.00
60909;DHT22;46780;48.128;-1.704;2022-11-11T15:46:46;11.90;94.00
60909;DHT22;46780;48.128;-1.704;2022-11-11T15:51:56;11.80;94.10
60909;DHT22;46780;48.128;-1.704;2022-11-11T15:54:22;11.90;94.10
60909;DHT22;46780;48.128;-1.704;2022-11-11T15:56:49;11.80;94.10
60909;DHT22;46780;48.128;-1.704;2022-11-11T15:59:17;11.80;94.20
60909;DHT22;46780;48.128;-1.704;2022-11-11T16:01:44;11.70;94.30
60909;DHT22;46780;48.128;-1.704;2022-11-11T16:04:17;11.70;94.40
60909;DHT22;46780;48.128;-1.704;2022-11-11T16:06:44;11.70;94.50
60909;DHT22;46780;48.128;-1.704;2022-11-11T16:09:12;11.60;94.70
60909;DHT22;46780;48.128;-1.704;2022-11-11T16:11:40;11.60;94.90
60909;DHT22;46780;48.128;-1.704;2022-11-11T16:14:15;11.60;95.00